Time;durP1;ratioP1;P1;durP2;ratioP2;P2;SDS_P1;SDS_P2;PMS_P1;PMS_P2;Temp;Humidity;BMP_temperature;BMP_pressure;BME280_temperature;BME280_humidity;BME280_pressure;Samples;Min_cycle;Max_cycle;Signal;HPM_P1;HPM_P2
2021/05/21 00:01:34;;;;;;;4.65;1.40;;;;;;;19.58;48.53;100672.91;5049828;28;20055;-66
2021/05/21 00:04:02;;;;;;;6.75;1.80;;;;;;;19.61;48.72;100674.66;5067196;28;20115;-66
2021/05/21 00:06:29;;;;;;;6.22;0.88;;;;;;;19.60;48.96;100667.53;5069148;28;20136;-66
2021/05/21 00:08:56;;;;;;;4.28;1.00;;;;;;;19.58;48.94;100669.34;5068400;28;20557;-66
2021/05/21 00:11:24;;;;;;;4.07;1.15;;;;;;;19.53;49.06;100668.56;5067167;28;20452;-66
2021/05/21 00:13:51;;;;;;;5.38;1.00;;;;;;;19.34;49.42;100668.06;5068798;28;20074;-66
2021/05/21 00:16:18;;;;;;;4.53;0.90;;;;;;;19.27;49.70;100663.75;5069255;28;20036;-66
2021/05/21 00:18:48;;;;;;;4.15;1.13;;;;;;;19.23;49.74;100657.59;5069275;28;20036;-65
2021/05/21 00:21:16;;;;;;;3.80;0.88;;;;;;;19.15;50.05;100654.22;5067760;28;20500;-66
2021/05/21 00:23:43;;;;;;;5.93;1.13;;;;;;;19.18;50.27;100655.91;5069404;28;20484;-66
2021/05/21 00:26:10;;;;;;;5.50;1.25;;;;;;;19.15;50.31;100656.88;5068722;28;20114;-66
2021/05/21 00:28:38;;;;;;;3.78;1.00;;;;;;;19.16;50.34;100660.44;5069585;28;20125;-66
2021/05/21 00:31:05;;;;;;;6.60;1.38;;;;;;;19.23;50.22;100654.06;5068280;28;20126;-66
2021/05/21 00:33:32;;;;;;;4.35;0.95;;;;;;;19.30;50.06;100656.53;5067694;28;20775;-66
2021/05/21 00:36:01;;;;;;;3.35;0.85;;;;;;;19.18;50.26;100662.16;5067864;28;20504;-66
2021/05/21 00:38:28;;;;;;;4.63;1.10;;;;;;;19.15;50.34;100653.31;5068167;28;20040;-66
2021/05/21 00:40:55;;;;;;;4.65;1.10;;;;;;;19.16;50.45;100650.63;5068889;28;20123;-66
2021/05/21 00:43:22;;;;;;;7.03;1.55;;;;;;;19.18;50.55;100655.91;5069177;28;20119;-66
2021/05/21 00:45:49;;;;;;;5.72;1.48;;;;;;;19.13;50.65;100650.69;5068030;28;20037;-66
2021/05/21 00:48:16;;;;;;;6.20;1.38;;;;;;;19.12;51.01;100651.59;5069426;28;20044;-66
2021/05/21 00:50:43;;;;;;;3.60;1.67;;;;;;;19.03;51.37;100658.00;5073010;28;20127;-66
2021/05/21 00:53:13;;;;;;;8.43;1.38;;;;;;;19.03;51.68;100654.47;5073086;28;20033;-65
2021/05/21 00:55:40;;;;;;;8.23;1.67;;;;;;;18.90;52.03;100655.63;5071262;28;20047;-65
2021/05/21 00:58:06;;;;;;;4.32;1.45;;;;;;;18.89;52.33;100653.88;5072404;28;20040;-66
2021/05/21 01:00:34;;;;;;;6.32;1.83;;;;;;;18.83;52.55;100656.66;5072991;28;20048;-65
2021/05/21 01:03:01;;;;;;;5.15;1.27;;;;;;;18.83;52.89;100662.03;5072628;28;20051;-66
2021/05/21 01:05:28;;;;;;;6.88;1.20;;;;;;;18.91;52.75;100650.22;5071897;28;20032;-66
2021/05/21 01:07:55;;;;;;;7.68;1.77;;;;;;;18.99;52.62;100650.97;5071255;28;20105;-65
2021/05/21 01:10:23;;;;;;;4.65;1.60;;;;;;;19.06;52.60;100654.41;5072795;28;20128;-66
2021/05/21 01:12:50;;;;;;;5.57;1.25;;;;;;;19.02;52.93;100658.94;5072710;28;20074;-65
2021/05/21 01:15:17;;;;;;;4.38;1.17;;;;;;;18.99;52.91;100656.31;5071269;28;20036;-66
2021/05/21 01:17:44;;;;;;;8.48;1.45;;;;;;;18.91;53.28;100652.91;5071592;28;20041;-67
2021/05/21 01:20:13;;;;;;;4.60;1.20;;;;;;;18.84;53.88;100653.09;5072488;28;20123;-66
2021/05/21 01:22:41;;;;;;;5.55;1.10;;;;;;;18.75;54.15;100651.47;5072192;28;20060;-66
2021/05/21 01:25:10;;;;;;;5.00;1.20;;;;;;;18.77;54.34;100651.44;5072124;28;20037;-66
2021/05/21 01:27:37;;;;;;;5.72;1.30;;;;;;;18.81;54.30;100645.13;5072363;28;20045;-66
2021/05/21 01:30:05;;;;;;;7.18;1.27;;;;;;;18.82;54.52;100644.22;5070573;28;20093;-67
2021/05/21 01:32:32;;;;;;;5.15;1.40;;;;;;;18.78;54.62;100643.38;5071643;28;20044;-66
2021/05/21 01:35:00;;;;;;;6.63;1.30;;;;;;;18.73;54.92;100639.03;5072058;28;20223;-66
2021/05/21 01:37:27;;;;;;;4.60;1.17;;;;;;;18.68;55.04;100641.81;5071874;28;20078;-66
2021/05/21 01:39:55;;;;;;;8.70;2.00;;;;;;;18.66;55.23;100640.94;5070710;28;20044;-67
2021/05/21 01:42:22;;;;;;;7.45;1.83;;;;;;;18.60;55.35;100641.06;5071938;28;20111;-66
2021/05/21 01:44:54;;;;;;;5.70;1.30;;;;;;;18.48;55.98;100644.81;5071866;28;20041;-66
2021/05/21 01:47:21;;;;;;;5.35;1.23;;;;;;;18.47;56.07;100637.69;5071765;28;20730;-66
2021/05/21 01:49:48;;;;;;;4.70;1.50;;;;;;;18.42;56.37;100636.91;5070303;28;20618;-66
2021/05/21 01:52:15;;;;;;;6.20;1.58;;;;;;;18.38;56.81;100634.34;5070264;28;20510;-66
2021/05/21 01:54:41;;;;;;;6.18;1.50;;;;;;;18.39;57.01;100634.28;5071431;28;20040;-66
2021/05/21 01:57:10;;;;;;;4.60;1.48;;;;;;;18.47;57.06;100629.69;5071332;28;20131;-66
2021/05/21 01:59:37;;;;;;;5.47;1.83;;;;;;;18.45;57.45;100638.63;5071267;28;20047;-66
2021/05/21 02:02:06;;;;;;;5.30;1.80;;;;;;;18.44;57.33;100632.44;5071662;28;20143;-66
2021/05/21 02:04:34;;;;;;;4.05;1.35;;;;;;;18.45;57.22;100633.28;5070753;28;20051;-66
2021/05/21 02:07:01;;;;;;;8.23;1.85;;;;;;;18.43;57.13;100635.13;5070154;28;20052;-66
2021/05/21 02:09:29;;;;;;;8.98;1.35;;;;;;;18.44;57.04;100639.56;5070212;28;20090;-66
2021/05/21 02:11:56;;;;;;;6.50;1.23;;;;;;;18.47;57.07;100631.47;5071179;28;20102;-66
2021/05/21 02:14:24;;;;;;;4.38;1.35;;;;;;;18.47;57.08;100629.69;5070129;28;20123;-66
2021/05/21 02:16:51;;;;;;;6.03;1.80;;;;;;;18.45;57.11;100627.94;5071553;28;20419;-66
2021/05/21 02:19:18;;;;;;;7.22;2.30;;;;;;;18.30;57.43;100632.69;5071360;28;20056;-66
2021/05/21 02:21:46;;;;;;;7.40;1.55;;;;;;;18.30;57.77;100648.72;5071469;28;20119;-66
2021/05/21 02:24:13;;;;;;;5.55;1.52;;;;;;;18.35;58.12;100647.75;5070071;28;20071;-66
2021/05/21 02:26:41;;;;;;;6.45;1.40;;;;;;;18.23;58.35;100648.84;5070090;28;20056;-65
2021/05/21 02:29:09;;;;;;;8.20;1.98;;;;;;;18.21;58.75;100651.53;5071670;28;20437;-66
2021/05/21 02:31:37;;;;;;;5.97;1.80;;;;;;;18.17;58.82;100659.66;5070853;28;20129;-66
2021/05/21 02:34:04;;;;;;;12.98;1.85;;;;;;;18.12;58.78;100661.50;5069699;28;20040;-66
2021/05/21 02:36:31;;;;;;;6.72;1.60;;;;;;;18.14;58.52;100659.69;5070275;28;20127;-66
2021/05/21 02:38:58;;;;;;;4.22;1.40;;;;;;;18.17;58.32;100662.31;5071071;28;20122;-66
2021/05/21 02:41:25;;;;;;;7.40;1.60;;;;;;;18.18;58.30;100667.63;5070473;28;20132;-66
2021/05/21 02:43:52;;;;;;;6.18;1.40;;;;;;;18.19;57.96;100682.75;5069451;28;20054;-66
2021/05/21 02:46:19;;;;;;;3.58;1.70;;;;;;;18.15;58.03;100696.19;5070539;28;20123;-65
2021/05/21 02:48:47;;;;;;;8.63;1.50;;;;;;;18.04;58.24;100690.16;5070765;28;20044;-66
2021/05/21 02:51:15;;;;;;;4.20;1.20;;;;;;;18.04;58.16;100684.81;5069179;28;20051;-66
2021/05/21 02:53:42;;;;;;;6.72;1.35;;;;;;;18.05;58.21;100676.75;5069488;28;20127;-65
2021/05/21 02:56:08;;;;;;;10.60;1.50;;;;;;;18.03;58.05;100667.88;5067644;28;20037;-65
2021/05/21 02:58:35;;;;;;;8.43;1.65;;;;;;;17.97;58.30;100662.66;5070768;28;20078;-66
2021/05/21 03:01:03;;;;;;;4.88;1.55;;;;;;;17.85;58.66;100654.84;5070301;28;20131;-66
2021/05/21 03:03:30;;;;;;;5.75;1.38;;;;;;;17.80;59.03;100672.69;5069116;28;21981;-66
2021/05/21 03:05:58;;;;;;;14.07;1.95;;;;;;;17.85;58.87;100669.03;5067218;28;20033;-66
2021/05/21 03:08:25;;;;;;;5.03;1.60;;;;;;;17.86;58.96;100669.94;5069508;28;20071;-66
2021/05/21 03:10:53;;;;;;;7.80;1.33;;;;;;;17.86;58.76;100691.28;5069779;28;20119;-66
2021/05/21 03:13:20;;;;;;;8.60;1.60;;;;;;;17.86;58.76;100697.53;5069482;28;20045;-66
2021/05/21 03:15:48;;;;;;;4.05;1.20;;;;;;;17.87;58.68;100701.97;5069843;28;20043;-65
2021/05/21 03:18:18;;;;;;;7.28;1.92;;;;;;;17.87;58.92;100703.75;5068987;28;20036;-66
2021/05/21 03:20:45;;;;;;;4.72;1.30;;;;;;;17.94;58.93;100700.09;5068667;28;20040;-66
2021/05/21 03:23:14;;;;;;;9.73;1.70;;;;;;;18.03;58.98;100691.94;5069746;28;20124;-66
2021/05/21 03:25:42;;;;;;;9.45;1.50;;;;;;;18.13;59.09;100688.19;5069956;28;20504;-66
2021/05/21 03:28:11;;;;;;;5.28;1.25;;;;;;;18.20;59.23;100680.97;5069970;28;20064;-67
2021/05/21 03:30:39;;;;;;;7.28;1.58;;;;;;;18.27;59.15;100679.94;5068973;28;20071;-66
2021/05/21 03:33:07;;;;;;;6.05;1.42;;;;;;;18.34;59.15;100676.25;5069429;28;20040;-66
2021/05/21 03:35:35;;;;;;;4.88;1.25;;;;;;;18.43;59.07;100683.25;5069706;28;20044;-65
2021/05/21 03:38:03;;;;;;;13.23;2.10;;;;;;;18.47;59.15;100700.97;5069943;28;20044;-65
2021/05/21 03:40:31;;;;;;;5.10;1.50;;;;;;;18.53;59.25;100707.09;5069171;28;21551;-66
2021/05/21 03:42:58;;;;;;;8.10;1.40;;;;;;;18.57;59.58;100710.66;5068972;28;20131;-66
2021/05/21 03:45:26;;;;;;;6.68;1.52;;;;;;;18.73;59.36;100713.91;5068575;28;20036;-66
2021/05/21 03:47:52;;;;;;;7.28;1.55;;;;;;;18.95;58.92;100710.81;5069333;28;20043;-66
2021/05/21 03:50:21;;;;;;;9.80;1.75;;;;;;;19.10;58.41;100717.63;5069561;28;20123;-66
2021/05/21 03:52:49;;;;;;;8.57;1.10;;;;;;;19.25;58.16;100727.16;5069459;28;20036;-66
2021/05/21 03:55:18;;;;;;;8.82;1.77;;;;;;;19.40;58.12;100732.19;5068262;28;20442;-66
2021/05/21 03:57:47;;;;;;;9.70;1.30;;;;;;;19.56;58.24;100733.66;5068739;28;20043;-66
2021/05/21 04:00:16;;;;;;;7.72;1.80;;;;;;;19.67;57.67;100733.44;5069367;28;20123;-66
2021/05/21 04:02:44;;;;;;;7.90;1.70;;;;;;;19.72;57.43;100736.88;5068632;28;20119;-65
2021/05/21 04:05:12;;;;;;;6.60;1.75;;;;;;;19.85;57.52;100741.94;5069243;28;20409;-66
2021/05/21 04:07:39;;;;;;;6.05;1.60;;;;;;;20.11;57.47;100735.97;5069372;28;20490;-65
2021/05/21 04:10:06;;;;;;;7.47;1.55;;;;;;;20.38;57.41;100731.75;5068186;28;20037;-66
2021/05/21 04:12:33;;;;;;;44.85;4.32;;;;;;;20.55;57.38;100744.72;5068650;28;20049;-66
2021/05/21 04:15:02;;;;;;;24.92;3.97;;;;;;;20.77;57.01;100763.84;5069507;28;20049;-66
2021/05/21 04:17:29;;;;;;;10.90;1.52;;;;;;;20.91;56.70;100765.25;5069079;28;20035;-66
2021/05/21 04:19:56;;;;;;;5.78;1.58;;;;;;;21.03;56.29;100761.34;5067800;28;20041;-66
2021/05/21 04:22:23;;;;;;;7.25;1.40;;;;;;;21.16;53.80;100775.34;5069035;28;20449;-66
2021/05/21 04:24:50;;;;;;;4.05;0.95;;;;;;;21.35;52.40;100782.84;5068920;28;20040;-66
2021/05/21 04:27:17;;;;;;;6.22;0.60;;;;;;;21.59;49.32;100799.19;5065766;28;20033;-67
2021/05/21 04:29:45;;;;;;;5.63;0.50;;;;;;;21.82;47.14;100777.88;5067678;28;20032;-66
2021/05/21 04:32:14;;;;;;;4.30;0.70;;;;;;;22.09;45.31;100787.81;5068687;28;20063;-67
2021/05/21 04:34:42;;;;;;;8.25;0.98;;;;;;;22.34;43.88;100797.81;5069185;28;20043;-66
2021/05/21 04:37:10;;;;;;;6.07;0.60;;;;;;;22.52;43.36;100789.13;5068860;28;20044;-66
2021/05/21 04:39:37;;;;;;;7.47;1.00;;;;;;;22.73;41.29;100777.69;5066894;28;20048;-67
2021/05/21 04:42:04;;;;;;;5.95;1.00;;;;;;;22.94;41.52;100770.66;5069077;28;20040;-66
2021/05/21 04:44:31;;;;;;;7.50;1.23;;;;;;;23.23;41.58;100789.38;5068806;28;20073;-67
2021/05/21 04:46:58;;;;;;;8.90;1.05;;;;;;;23.48;41.06;100792.09;5067988;28;20045;-66
2021/05/21 04:49:35;;;;;;;4.55;0.63;;;;;;;23.78;40.33;100795.44;5067562;28;20047;-67
2021/05/21 04:52:04;;;;;;;7.22;0.73;;;;;;;24.08;39.01;100788.88;5069260;28;20377;-66
2021/05/21 04:54:33;;;;;;;5.50;0.85;;;;;;;24.31;38.44;100790.66;5068088;28;20449;-67
2021/05/21 04:56:59;;;;;;;5.53;0.60;;;;;;;24.54;38.45;100777.09;5067925;28;20511;-66
2021/05/21 04:59:27;;;;;;;6.53;1.35;;;;;;;24.76;38.11;100768.06;5068279;28;20043;-66
2021/05/21 05:01:54;;;;;;;4.30;1.00;;;;;;;24.93;37.71;100784.50;5068979;28;20050;-66
2021/05/21 05:04:21;;;;;;;6.80;1.23;;;;;;;25.12;37.69;100787.25;5068273;28;20171;-66
2021/05/21 05:06:49;;;;;;;4.95;0.90;;;;;;;25.40;37.12;100795.91;5067733;28;20123;-66
2021/05/21 05:09:17;;;;;;;5.07;1.08;;;;;;;25.46;36.43;100795.63;5068953;28;20459;-66
2021/05/21 05:11:44;;;;;;;6.40;1.00;;;;;;;25.73;36.46;100790.81;5067703;28;20067;-66
2021/05/21 05:14:12;;;;;;;9.00;1.27;;;;;;;25.93;36.24;100801.53;5068509;28;20132;-65
2021/05/21 05:16:40;;;;;;;5.88;1.25;;;;;;;26.17;35.15;100813.94;5068275;28;20044;-65
2021/05/21 05:19:07;;;;;;;6.15;1.00;;;;;;;26.14;34.63;100822.19;5068226;28;20112;-66
2021/05/21 05:21:40;;;;;;;5.95;1.27;;;;;;;26.05;34.71;100817.22;5067738;28;20043;-66
2021/05/21 05:24:13;;;;;;;6.68;0.95;;;;;;;25.85;34.17;100830.81;5068961;28;20047;-66
2021/05/21 05:26:40;;;;;;;3.88;0.60;;;;;;;25.96;34.12;100833.00;5067154;28;20033;-67
2021/05/21 05:29:10;;;;;;;4.25;0.80;;;;;;;26.07;33.68;100822.53;5056704;28;20036;-66
2021/05/21 05:31:38;;;;;;;7.63;1.20;;;;;;;26.36;33.95;100813.06;5068044;28;20116;-66
2021/05/21 05:34:06;;;;;;;6.22;1.25;;;;;;;26.42;33.74;100819.06;5068464;28;20117;-66
2021/05/21 05:36:33;;;;;;;9.60;1.00;;;;;;;26.45;33.79;100827.00;5070757;28;20086;-67
2021/05/21 05:39:01;;;;;;;6.97;1.20;;;;;;;26.51;33.97;100823.16;5070978;28;20120;-69
2021/05/21 05:41:29;;;;;;;7.18;1.10;;;;;;;26.71;34.21;100822.16;5071940;28;20140;-67
2021/05/21 05:43:56;;;;;;;6.95;1.02;;;;;;;26.90;33.76;100829.31;5071429;28;20075;-66
2021/05/21 05:46:23;;;;;;;9.23;1.00;;;;;;;27.15;33.70;100817.22;5071137;28;20068;-67
2021/05/21 05:48:51;;;;;;;6.50;1.10;;;;;;;27.39;33.03;100818.63;5070542;28;20559;-67
2021/05/21 05:51:18;;;;;;;6.63;1.00;;;;;;;27.52;33.06;100827.88;5070576;28;20068;-66
2021/05/21 05:53:45;;;;;;;5.68;1.20;;;;;;;27.79;32.67;100825.53;5057020;28;20041;-66
2021/05/21 05:56:12;;;;;;;6.15;1.17;;;;;;;27.92;32.25;100829.31;5056214;28;20039;-66
2021/05/21 05:58:41;;;;;;;6.80;1.23;;;;;;;27.74;31.59;100835.75;5055433;28;20531;-66
2021/05/21 06:01:08;;;;;;;5.35;0.90;;;;;;;27.70;31.73;100824.16;5067498;28;20033;-66
2021/05/21 06:03:35;;;;;;;8.68;1.15;;;;;;;27.51;32.21;100839.66;5059974;28;20159;-66
2021/05/21 06:06:02;;;;;;;6.95;1.20;;;;;;;27.57;31.82;100833.09;5071047;28;20086;-66
2021/05/21 06:08:29;;;;;;;7.97;1.23;;;;;;;27.63;31.68;100843.59;5063541;28;20041;-66
2021/05/21 06:10:57;;;;;;;8.60;1.42;;;;;;;27.53;31.98;100854.06;5058740;28;20067;-66
2021/05/21 06:13:26;;;;;;;7.28;1.10;;;;;;;27.61;32.21;100859.97;5051338;28;20044;-66
2021/05/21 06:15:54;;;;;;;5.78;1.10;;;;;;;27.44;32.92;100862.63;5070338;28;20553;-66
2021/05/21 06:18:21;;;;;;;9.90;2.20;;;;;;;27.48;32.70;100861.53;5070889;28;20045;-66
2021/05/21 06:20:49;;;;;;;5.82;0.90;;;;;;;27.74;32.80;100869.19;5062311;28;20132;-66
2021/05/21 06:23:17;;;;;;;8.43;1.60;;;;;;;27.83;32.96;100866.94;5076938;28;20209;-66
2021/05/21 06:26:10;;;;;;;10.63;1.77;;;;;;;27.74;33.44;100869.19;5068028;28;20052;-66
2021/05/21 06:28:38;;;;;;;6.40;1.60;;;;;;;27.57;33.34;100877.34;5070566;28;20048;-67
2021/05/21 06:31:06;;;;;;;8.98;1.80;;;;;;;27.70;33.41;100873.00;5070613;28;20277;-66
2021/05/21 06:33:33;;;;;;;5.43;1.85;;;;;;;27.54;33.48;100872.09;5070448;28;20732;-67
2021/05/21 06:36:00;;;;;;;5.47;1.13;;;;;;;27.52;33.88;100857.72;5071305;28;20072;-66
2021/05/21 06:38:27;;;;;;;8.35;1.73;;;;;;;27.66;33.54;100873.28;5070427;28;20041;-66
2021/05/21 06:40:54;;;;;;;6.22;1.10;;;;;;;27.95;33.52;100860.84;5070761;28;20131;-67
2021/05/21 06:43:22;;;;;;;7.60;1.40;;;;;;;27.67;33.10;100875.03;5070621;28;20037;-66
2021/05/21 06:45:49;;;;;;;11.10;1.65;;;;;;;27.77;32.72;100866.31;5069676;28;20044;-66
2021/05/21 06:48:17;;;;;;;7.45;0.90;;;;;;;27.99;32.52;100855.16;5068504;28;20428;-66
2021/05/21 06:50:45;;;;;;;6.50;1.30;;;;;;;28.00;32.91;100859.63;5070830;28;20058;-66
2021/05/21 06:53:12;;;;;;;10.15;1.52;;;;;;;28.00;32.14;100875.03;5065593;28;20109;-66
2021/05/21 06:55:39;;;;;;;4.95;0.80;;;;;;;27.82;32.22;100870.63;5069928;28;20036;-67
2021/05/21 06:58:07;;;;;;;8.15;1.40;;;;;;;27.70;32.83;100877.56;5069592;28;20041;-66
2021/05/21 07:00:36;;;;;;;7.13;1.50;;;;;;;27.73;33.01;100881.00;5069856;28;20120;-66
2021/05/21 07:03:03;;;;;;;9.88;1.60;;;;;;;27.94;33.06;100865.41;5070807;28;20047;-66
2021/05/21 07:05:31;;;;;;;8.45;1.40;;;;;;;27.95;33.80;100878.03;5070688;28;20037;-66
2021/05/21 07:07:58;;;;;;;13.10;1.75;;;;;;;27.92;33.79;100883.59;5069383;28;20123;-67
2021/05/21 07:10:25;;;;;;;10.82;1.50;;;;;;;27.98;33.73;100902.25;5070714;28;20128;-66
2021/05/21 07:12:52;;;;;;;13.18;1.70;;;;;;;28.02;34.05;100908.44;5070089;28;20439;-67
2021/05/21 07:15:19;;;;;;;7.22;1.38;;;;;;;28.01;33.85;100910.25;5070200;28;20423;-67
2021/05/21 07:17:46;;;;;;;6.25;1.40;;;;;;;28.19;33.42;100913.81;5069373;28;20126;-67
2021/05/21 07:20:15;;;;;;;8.77;1.48;;;;;;;28.24;33.18;100913.56;5055587;28;20423;-67
2021/05/21 07:22:42;;;;;;;9.68;1.15;;;;;;;28.22;33.32;100907.38;5070146;28;20044;-67
2021/05/21 07:25:10;;;;;;;9.15;1.50;;;;;;;28.38;33.49;100913.69;5070634;28;20173;-67
2021/05/21 07:27:38;;;;;;;9.60;1.42;;;;;;;28.50;33.80;100930.16;5067392;28;20047;-67
2021/05/21 07:30:06;;;;;;;7.25;1.10;;;;;;;28.81;33.17;100931.19;5059469;28;20040;-66
2021/05/21 07:32:33;;;;;;;7.70;1.10;;;;;;;28.82;32.98;100932.94;5052177;28;20403;-66
2021/05/21 07:35:02;;;;;;;6.60;0.82;;;;;;;28.96;32.62;100943.00;5065220;28;20048;-66
2021/05/21 07:37:29;;;;;;;7.65;1.10;;;;;;;28.78;32.52;100959.41;5067619;28;20043;-67
2021/05/21 07:39:58;;;;;;;7.10;1.25;;;;;;;28.75;32.43;100953.31;5068344;28;20045;-66
2021/05/21 07:42:24;;;;;;;6.63;1.00;;;;;;;28.83;32.83;100964.59;5068499;28;20124;-66
2021/05/21 07:44:52;;;;;;;11.10;2.17;;;;;;;28.95;32.66;100968.47;5068401;28;20540;-67
2021/05/21 07:47:20;;;;;;;8.57;1.27;;;;;;;29.23;32.91;100984.94;5068086;28;20444;-66
2021/05/21 07:49:47;;;;;;;6.07;1.45;;;;;;;29.24;32.57;100984.84;5068577;28;20124;-67
2021/05/21 07:52:14;;;;;;;12.52;1.52;;;;;;;29.29;32.80;100999.03;5069380;28;20128;-66
2021/05/21 07:54:41;;;;;;;9.75;1.38;;;;;;;29.55;32.47;101007.53;5069699;28;20037;-67
2021/05/21 07:57:10;;;;;;;6.82;1.30;;;;;;;29.62;31.83;101008.94;5068525;28;20516;-67
2021/05/21 07:59:37;;;;;;;9.00;1.42;;;;;;;29.61;31.92;101005.34;5061032;28;20559;-66
2021/05/21 08:02:04;;;;;;;8.07;1.75;;;;;;;29.71;32.02;101013.84;5069169;28;20492;-66
2021/05/21 08:04:31;;;;;;;7.82;1.73;;;;;;;29.77;32.01;101016.19;5069665;28;20128;-66
2021/05/21 08:06:59;;;;;;;6.80;1.75;;;;;;;29.82;32.42;101011.34;5066229;28;20040;-67
2021/05/21 08:09:26;;;;;;;11.00;1.40;;;;;;;29.56;32.20;101015.63;5068338;28;20040;-67
2021/05/21 08:11:53;;;;;;;7.45;1.05;;;;;;;29.50;32.60;101004.22;5068320;28;20094;-67
2021/05/21 08:14:22;;;;;;;8.98;1.40;;;;;;;29.40;32.80;101009.34;5069262;28;20771;-66
2021/05/21 08:16:49;;;;;;;9.27;1.55;;;;;;;29.40;33.07;101011.19;5069124;28;20115;-66
2021/05/21 08:19:16;;;;;;;10.93;1.50;;;;;;;29.54;33.32;101019.41;5069107;28;20671;-67
2021/05/21 08:21:43;;;;;;;5.88;1.27;;;;;;;29.66;33.10;101016.84;5069589;28;20052;-66
2021/05/21 08:24:11;;;;;;;9.38;1.55;;;;;;;29.91;32.77;101027.13;5069393;28;20061;-67
2021/05/21 08:26:38;;;;;;;13.70;1.30;;;;;;;30.06;31.93;101042.56;5069242;28;20567;-66
2021/05/21 08:29:05;;;;;;;7.55;1.30;;;;;;;30.19;31.54;101048.16;5068670;28;20051;-67
2021/05/21 08:31:34;;;;;;;9.15;1.58;;;;;;;30.26;31.60;101045.94;5068894;28;20059;-66
2021/05/21 08:34:00;;;;;;;7.82;1.30;;;;;;;30.31;31.21;101057.41;5069324;28;20393;-67
2021/05/21 08:36:27;;;;;;;7.85;1.33;;;;;;;30.20;31.47;101055.34;5069412;28;20039;-66
2021/05/21 08:38:55;;;;;;;12.20;1.10;;;;;;;30.40;30.99;101054.97;5068524;28;20178;-66
2021/05/21 08:41:25;;;;;;;7.65;1.58;;;;;;;30.43;30.59;101062.97;5069240;28;20043;-66
2021/05/21 08:43:52;;;;;;;9.20;1.80;;;;;;;30.17;30.78;101063.72;5069239;28;20033;-67
2021/05/21 08:46:22;;;;;;;7.13;1.08;;;;;;;30.06;30.84;101064.34;5069081;28;20044;-66
2021/05/21 08:48:51;;;;;;;8.27;1.23;;;;;;;30.33;30.85;101066.34;5068684;28;20040;-67
2021/05/21 08:51:19;;;;;;;6.13;1.33;;;;;;;30.43;30.78;101068.44;5068747;28;20037;-67
2021/05/21 08:53:46;;;;;;;7.72;1.38;;;;;;;30.51;30.75;101056.22;5069031;28;20124;-66
2021/05/21 08:56:13;;;;;;;10.13;1.23;;;;;;;30.34;31.10;101069.00;5068990;28;20128;-66
2021/05/21 08:58:40;;;;;;;9.45;1.48;;;;;;;30.48;30.66;101089.94;5068850;28;20032;-66
2021/05/21 09:01:08;;;;;;;8.23;1.52;;;;;;;30.31;31.05;101087.38;5069114;28;20124;-66
2021/05/21 09:03:34;;;;;;;17.15;1.55;;;;;;;30.31;31.12;101085.53;5068629;28;20125;-66
2021/05/21 09:06:13;;;;;;;9.88;1.60;;;;;;;30.37;30.84;101090.63;5068336;28;20478;-66
2021/05/21 09:08:43;;;;;;;9.52;1.23;;;;;;;30.39;30.45;101090.53;5069006;28;20045;-66
2021/05/21 09:11:28;;;;;;;7.18;0.90;;;;;;;30.43;30.01;101095.69;5072749;28;20037;-67
2021/05/21 09:14:01;;;;;;;5.85;1.00;;;;;;;30.44;30.02;101093.84;5071985;28;20044;-67
2021/05/21 09:16:29;;;;;;;8.18;1.23;;;;;;;30.44;29.93;101108.34;5072401;28;20040;-66
2021/05/21 09:19:09;;;;;;;9.27;1.48;;;;;;;30.42;30.24;101104.84;5072223;28;20056;-66
2021/05/21 09:22:01;;;;;;;8.77;2.20;;;;;;;30.38;30.44;101095.09;5071062;28;20060;-68
2021/05/21 09:24:32;;;;;;;9.32;1.33;;;;;;;30.31;30.76;101098.28;5060960;28;20041;-67
2021/05/21 09:27:00;;;;;;;7.25;1.33;;;;;;;30.06;31.17;101091.59;5071161;28;20041;-67
2021/05/21 09:29:41;;;;;;;7.72;1.33;;;;;;;30.21;31.14;101110.69;5072320;28;20085;-67
2021/05/21 09:32:23;;;;;;;6.53;1.30;;;;;;;30.36;30.90;101116.09;5071540;28;20093;-66
2021/05/21 09:35:17;;;;;;;8.65;1.33;;;;;;;30.30;30.92;101116.50;5056547;28;20048;-65
2021/05/21 09:37:47;;;;;;;7.18;1.45;;;;;;;30.33;31.12;101121.72;5050154;28;20048;-66
2021/05/21 09:40:17;;;;;;;7.90;1.20;;;;;;;30.41;30.69;101119.41;5058995;28;20051;-66
2021/05/21 09:42:52;;;;;;;8.60;1.30;;;;;;;30.31;30.67;101120.97;5069716;28;20049;-66
2021/05/21 09:45:22;;;;;;;5.25;1.20;;;;;;;30.20;30.78;101128.88;5071632;28;20112;-67
2021/05/21 09:47:52;;;;;;;6.30;0.95;;;;;;;30.33;30.59;101129.03;5070951;28;20086;-66
2021/05/21 09:50:20;;;;;;;8.02;0.95;;;;;;;30.56;30.71;101122.22;5071114;28;20488;-66
2021/05/21 09:52:49;;;;;;;6.35;0.93;;;;;;;30.80;30.12;101118.81;5069173;28;20047;-66
2021/05/21 09:55:17;;;;;;;8.68;1.08;;;;;;;30.72;29.55;101121.16;5059850;28;20036;-66
2021/05/21 09:57:45;;;;;;;7.43;1.00;;;;;;;30.66;29.66;101121.53;5070948;28;20076;-66
2021/05/21 10:00:14;;;;;;;5.93;0.90;;;;;;;30.59;29.69;101108.41;5071630;28;20400;-66
2021/05/21 10:02:43;;;;;;;7.63;1.20;;;;;;;30.37;29.91;101117.00;5071206;28;20037;-66
2021/05/21 10:05:11;;;;;;;9.73;1.65;;;;;;;30.09;30.44;101129.53;5067875;28;20102;-66
2021/05/21 10:07:38;;;;;;;6.22;1.25;;;;;;;30.06;30.97;101124.28;5054086;28;20063;-66
2021/05/21 10:10:07;;;;;;;6.95;1.58;;;;;;;30.06;31.55;101134.31;5070695;28;20045;-67
2021/05/21 10:12:34;;;;;;;9.88;1.27;;;;;;;29.89;32.26;101132.53;5068709;28;20064;-66
2021/05/21 10:15:01;;;;;;;9.45;1.35;;;;;;;29.84;32.20;101131.94;5069617;28;20036;-66
2021/05/21 10:17:29;;;;;;;9.50;1.15;;;;;;;29.79;32.38;101134.06;5070458;28;20041;-66
2021/05/21 10:19:56;;;;;;;4.90;1.13;;;;;;;29.86;32.03;101119.13;5070651;28;20456;-66
2021/05/21 10:22:26;;;;;;;7.75;1.55;;;;;;;29.81;31.86;101123.94;5071151;28;20512;-67
2021/05/21 10:25:01;;;;;;;9.85;1.83;;;;;;;29.79;32.42;101119.56;5070907;28;20037;-67
2021/05/21 10:27:32;;;;;;;6.10;1.05;;;;;;;29.84;32.07;101112.88;5071014;28;20044;-66
2021/05/21 10:30:03;;;;;;;8.98;1.20;;;;;;;29.84;32.33;101114.72;5069979;28;20451;-66
2021/05/21 10:32:31;;;;;;;6.03;1.25;;;;;;;29.71;32.64;101123.63;5064122;28;20116;-67
2021/05/21 10:35:00;;;;;;;9.57;1.33;;;;;;;29.66;33.21;101113.97;5057335;28;20465;-67
2021/05/21 10:37:35;;;;;;;9.15;1.27;;;;;;;29.54;33.69;101111.91;5055175;28;20205;-66
2021/05/21 10:40:09;;;;;;;7.47;1.33;;;;;;;29.32;33.93;101126.75;5053701;28;20057;-66
2021/05/21 10:42:39;;;;;;;6.10;1.20;;;;;;;29.20;33.84;101127.44;5050317;28;20472;-66
2021/05/21 10:45:15;;;;;;;8.60;1.30;;;;;;;29.17;34.03;101127.59;5055355;28;20459;-66
2021/05/21 10:47:46;;;;;;;10.05;1.83;;;;;;;29.09;33.83;101129.84;5061424;28;20445;-66
2021/05/21 10:50:19;;;;;;;8.40;1.77;;;;;;;29.04;33.94;101139.25;5061767;28;20032;-67
2021/05/21 10:52:56;;;;;;;8.25;1.38;;;;;;;29.05;33.46;101141.00;5062751;28;20109;-66
2021/05/21 10:55:47;;;;;;;6.15;1.60;;;;;;;29.06;33.69;101142.75;5059911;28;20048;-65
2021/05/21 10:58:30;;;;;;;10.02;2.40;;;;;;;29.20;33.49;101153.75;5055386;28;20535;-67
2021/05/21 11:01:25;;;;;;;13.48;2.15;;;;;;;29.42;32.66;101150.72;5088180;28;20045;-66
2021/05/21 11:04:09;;;;;;;9.05;1.98;;;;;;;29.15;33.10;101151.28;5061794;28;20057;-66
2021/05/21 11:06:49;;;;;;;;;;;;;;;28.98;33.21;101161.34;5061308;28;20045;-66
2021/05/21 11:09:18;;;;;;;14.30;3.55;;;;;;;28.90;33.26;101145.44;5051453;28;20003;-66
2021/05/21 11:11:47;;;;;;;15.63;2.58;;;;;;;28.88;33.51;101144.66;5063186;28;20064;-66
2021/05/21 11:14:40;;;;;;;10.25;2.00;;;;;;;29.00;33.68;101162.13;5065730;28;20044;-66
2021/05/21 11:17:22;;;;;;;13.18;3.38;;;;;;;28.99;33.56;101150.38;5056461;28;20040;-66
2021/05/21 11:19:55;;;;;;;8.93;2.50;;;;;;;29.26;33.05;101147.97;5069091;28;20039;-66
2021/05/21 11:22:28;;;;;;;7.47;1.90;;;;;;;29.02;33.39;101141.16;5056041;28;20037;-66
2021/05/21 11:24:58;;;;;;;6.85;2.28;;;;;;;29.20;33.51;101146.47;5064322;28;20577;-66
2021/05/21 11:27:29;;;;;;;9.75;2.42;;;;;;;29.33;33.05;101154.84;5064868;28;20048;-66
2021/05/21 11:29:58;;;;;;;6.57;2.10;;;;;;;29.63;32.71;101163.13;5069109;28;20127;-66
2021/05/21 11:32:28;;;;;;;9.38;2.30;;;;;;;29.81;32.57;101156.59;5056638;28;20085;-66